EVA642 LHBP-EKCH
Flight info
| Callsign | EVA642 |
|---|---|
| Flight time | 1h 36m |
| Altitude | 32000 |
| Route | LITKU Y301 KALIF/N0484F320 DCT BILNA DCT REGLI L617 ADVAB L619 DENKO L996 GOSOT/N0477F280 L996 ROE M743 TIDVU |
| Aircraft | B77L/H-SDE1E2E3FGHIJ2J3J4J5M1RWXY/LB1D1 |
Departure
| Time | 2026-05-04 17:56 |
|---|---|
| Airport | Budapest Liszt Ferenc International Airport (LHBP) |
Arrival
| Time | 2026-05-04 19:33 |
|---|---|
| Airport | Copenhagen Kastrup Airport (EKCH) |
| Time | Latitude | Longitude | Altitude | Speed | Heading |
|---|---|---|---|---|---|
| 2026-05-04 16:48 | 47.42834 | 19.27731 | 461 ft | 0 kts | 312° |
| 2026-05-04 17:40 | 47.42829 | 19.27739 | 462 ft | 4 kts | 310° |
| 2026-05-04 17:40 | 47.42813 | 19.27770 | 458 ft | 4 kts | 308° |
| 2026-05-04 17:40 | 47.42797 | 19.27795 | 457 ft | 4 kts | 338° |
| 2026-05-04 17:40 | 47.42775 | 19.27803 | 460 ft | 4 kts | 0° |
| 2026-05-04 17:41 | 47.42754 | 19.27796 | 459 ft | 4 kts | 38° |
| 2026-05-04 17:41 | 47.42735 | 19.27770 | 459 ft | 3 kts | 43° |
| 2026-05-04 17:41 | 47.42733 | 19.27767 | 459 ft | 0 kts | 42° |
| 2026-05-04 17:47 | 47.42744 | 19.27782 | 459 ft | 6 kts | 42° |
| 2026-05-04 17:48 | 47.42778 | 19.27827 | 459 ft | 7 kts | 42° |
| 2026-05-04 17:48 | 47.42811 | 19.27873 | 462 ft | 7 kts | 44° |
| 2026-05-04 17:48 | 47.42847 | 19.27910 | 462 ft | 6 kts | 8° |
| 2026-05-04 17:48 | 47.42884 | 19.27876 | 462 ft | 6 kts | 316° |
| 2026-05-04 17:49 | 47.42919 | 19.27820 | 462 ft | 9 kts | 312° |
| 2026-05-04 17:49 | 47.42970 | 19.27738 | 462 ft | 13 kts | 312° |
| 2026-05-04 17:49 | 47.43038 | 19.27627 | 461 ft | 16 kts | 312° |
| 2026-05-04 17:49 | 47.43123 | 19.27491 | 462 ft | 20 kts | 312° |
| 2026-05-04 17:50 | 47.43222 | 19.27331 | 462 ft | 21 kts | 312° |
| 2026-05-04 17:50 | 47.43322 | 19.27170 | 462 ft | 21 kts | 312° |
| 2026-05-04 17:50 | 47.43421 | 19.27009 | 462 ft | 21 kts | 313° |
| 2026-05-04 17:50 | 47.43519 | 19.26852 | 462 ft | 21 kts | 312° |
| 2026-05-04 17:51 | 47.43618 | 19.26693 | 462 ft | 21 kts | 313° |
| 2026-05-04 17:51 | 47.43716 | 19.26534 | 462 ft | 21 kts | 311° |
| 2026-05-04 17:51 | 47.43815 | 19.26375 | 462 ft | 21 kts | 313° |
| 2026-05-04 17:51 | 47.43913 | 19.26217 | 462 ft | 21 kts | 312° |
| 2026-05-04 17:52 | 47.44010 | 19.26059 | 462 ft | 21 kts | 312° |
| 2026-05-04 17:52 | 47.44108 | 19.25902 | 462 ft | 21 kts | 312° |
| 2026-05-04 17:52 | 47.44204 | 19.25745 | 462 ft | 21 kts | 312° |
| 2026-05-04 17:52 | 47.44298 | 19.25602 | 462 ft | 16 kts | 320° |
| 2026-05-04 17:53 | 47.44391 | 19.25559 | 463 ft | 12 kts | 2° |
| 2026-05-04 17:53 | 47.44443 | 19.25582 | 465 ft | 4 kts | 28° |
| 2026-05-04 17:53 | 47.44446 | 19.25584 | 466 ft | 0 kts | 30° |
| 2026-05-04 17:54 | 47.44451 | 19.25589 | 466 ft | 4 kts | 30° |
| 2026-05-04 17:54 | 47.44486 | 19.25639 | 470 ft | 10 kts | 53° |
| 2026-05-04 17:54 | 47.44509 | 19.25734 | 478 ft | 10 kts | 81° |
| 2026-05-04 17:54 | 47.44501 | 19.25825 | 474 ft | 9 kts | 123° |
| 2026-05-04 17:55 | 47.44487 | 19.25849 | 473 ft | 0 kts | 131° |
| 2026-05-04 17:55 | 47.44476 | 19.25867 | 475 ft | 13 kts | 131° |
| 2026-05-04 17:55 | 47.44297 | 19.26156 | 474 ft | 73 kts | 132° |
| 2026-05-04 17:56 | 47.43797 | 19.26962 | 474 ft | 137 kts | 132° |
| 2026-05-04 17:56 | 47.43034 | 19.28203 | 516 ft | 181 kts | 134° |
| 2026-05-04 17:56 | 47.42215 | 19.29581 | 1116 ft | 177 kts | 125° |
| 2026-05-04 17:56 | 47.41715 | 19.31299 | 1647 ft | 185 kts | 112° |
| 2026-05-04 17:57 | 47.41296 | 19.33108 | 2226 ft | 187 kts | 113° |
| 2026-05-04 17:57 | 47.40884 | 19.34938 | 2836 ft | 189 kts | 112° |
| 2026-05-04 17:57 | 47.40474 | 19.36782 | 3468 ft | 189 kts | 112° |
| 2026-05-04 17:57 | 47.40057 | 19.38643 | 3859 ft | 203 kts | 112° |
| 2026-05-04 17:58 | 47.39581 | 19.40729 | 4063 ft | 225 kts | 109° |
| 2026-05-04 17:58 | 47.39497 | 19.43180 | 4204 ft | 259 kts | 77° |
| 2026-05-04 17:58 | 47.40403 | 19.45555 | 4675 ft | 274 kts | 48° |
| 2026-05-04 17:58 | 47.41774 | 19.47579 | 5343 ft | 282 kts | 45° |
| 2026-05-04 17:59 | 47.43201 | 19.49588 | 6232 ft | 284 kts | 44° |
| 2026-05-04 17:59 | 47.44651 | 19.51621 | 7055 ft | 285 kts | 44° |
| 2026-05-04 17:59 | 47.47960 | 19.54716 | 8315 ft | 291 kts | 5° |
| 2026-05-04 18:00 | 47.49966 | 19.54853 | 8974 ft | 294 kts | 0° |
| 2026-05-04 18:00 | 47.52027 | 19.54911 | 9700 ft | 298 kts | 0° |
| 2026-05-04 18:00 | 47.54113 | 19.54979 | 10369 ft | 304 kts | 0° |
| 2026-05-04 18:00 | 47.56298 | 19.55068 | 10635 ft | 327 kts | 1° |
| 2026-05-04 18:01 | 47.58655 | 19.55186 | 10832 ft | 351 kts | 1° |
| 2026-05-04 18:01 | 47.61184 | 19.55334 | 11068 ft | 374 kts | 1° |
| 2026-05-04 18:01 | 47.63827 | 19.55504 | 11662 ft | 385 kts | 2° |
| 2026-05-04 18:02 | 47.69270 | 19.55889 | 13460 ft | 394 kts | 2° |
| 2026-05-04 18:02 | 47.72022 | 19.56081 | 14339 ft | 398 kts | 2° |
| 2026-05-04 18:02 | 47.74799 | 19.56272 | 15159 ft | 401 kts | 2° |
| 2026-05-04 18:02 | 47.77607 | 19.56469 | 15976 ft | 405 kts | 2° |
| 2026-05-04 18:03 | 47.80442 | 19.56673 | 16785 ft | 409 kts | 2° |
| 2026-05-04 18:03 | 47.83296 | 19.56882 | 17599 ft | 413 kts | 2° |
| 2026-05-04 18:03 | 47.86169 | 19.57021 | 18377 ft | 415 kts | 357° |
| 2026-05-04 18:03 | 47.89043 | 19.56458 | 18987 ft | 418 kts | 345° |
| 2026-05-04 18:04 | 47.91809 | 19.55092 | 19674 ft | 420 kts | 335° |
| 2026-05-04 18:04 | 47.94461 | 19.53217 | 20360 ft | 423 kts | 333° |
| 2026-05-04 18:04 | 47.99752 | 19.49305 | 21642 ft | 431 kts | 333° |
| 2026-05-04 18:05 | 48.02452 | 19.47305 | 22288 ft | 435 kts | 333° |
| 2026-05-04 18:05 | 48.05179 | 19.45295 | 22926 ft | 439 kts | 333° |
| 2026-05-04 18:05 | 48.07932 | 19.43274 | 23573 ft | 443 kts | 333° |
| 2026-05-04 18:05 | 48.10717 | 19.41237 | 24102 ft | 447 kts | 333° |
| 2026-05-04 18:06 | 48.16332 | 19.37135 | 25216 ft | 451 kts | 333° |
| 2026-05-04 18:06 | 48.19162 | 19.35067 | 25752 ft | 454 kts | 333° |
| 2026-05-04 18:06 | 48.22010 | 19.32982 | 26262 ft | 457 kts | 333° |
| 2026-05-04 18:07 | 48.24877 | 19.30882 | 26759 ft | 460 kts | 333° |
| 2026-05-04 18:07 | 48.27763 | 19.28764 | 27248 ft | 463 kts | 333° |
| 2026-05-04 18:07 | 48.30673 | 19.26627 | 27734 ft | 466 kts | 333° |
| 2026-05-04 18:07 | 48.33596 | 19.24477 | 28235 ft | 469 kts | 333° |
| 2026-05-04 18:08 | 48.36537 | 19.22310 | 28697 ft | 472 kts | 333° |
| 2026-05-04 18:08 | 48.39495 | 19.20126 | 29135 ft | 475 kts | 333° |
| 2026-05-04 18:08 | 48.42470 | 19.17928 | 29561 ft | 478 kts | 333° |
| 2026-05-04 18:08 | 48.45461 | 19.15717 | 29994 ft | 480 kts | 333° |
| 2026-05-04 18:09 | 48.51455 | 19.11277 | 30931 ft | 478 kts | 333° |
| 2026-05-04 18:09 | 48.57397 | 19.06860 | 31933 ft | 474 kts | 333° |
| 2026-05-04 18:10 | 48.60356 | 19.04654 | 32405 ft | 473 kts | 333° |
| 2026-05-04 18:10 | 48.63302 | 19.02457 | 32849 ft | 472 kts | 333° |
| 2026-05-04 18:10 | 48.66242 | 19.00265 | 33265 ft | 471 kts | 333° |
| 2026-05-04 18:10 | 48.69173 | 18.98075 | 33701 ft | 469 kts | 333° |
| 2026-05-04 18:11 | 48.72059 | 18.95915 | 34072 ft | 469 kts | 333° |
| 2026-05-04 18:11 | 48.74996 | 18.93713 | 34041 ft | 472 kts | 333° |
| 2026-05-04 18:11 | 48.80865 | 18.89305 | 34026 ft | 468 kts | 332° |
| 2026-05-04 18:12 | 48.86681 | 18.84926 | 34025 ft | 466 kts | 332° |
| 2026-05-04 18:12 | 48.92476 | 18.80552 | 34035 ft | 465 kts | 332° |
| 2026-05-04 18:13 | 48.98271 | 18.76166 | 34022 ft | 465 kts | 332° |
| 2026-05-04 18:14 | 49.06957 | 18.69571 | 34015 ft | 465 kts | 332° |
| 2026-05-04 18:14 | 49.12755 | 18.65153 | 33990 ft | 466 kts | 332° |
| 2026-05-04 18:15 | 49.24367 | 18.56270 | 33984 ft | 467 kts | 332° |
| 2026-05-04 18:16 | 49.29925 | 18.52003 | 34010 ft | 467 kts | 332° |
| 2026-05-04 18:16 | 49.35733 | 18.47531 | 34013 ft | 467 kts | 332° |
| 2026-05-04 18:17 | 49.44488 | 18.41002 | 33996 ft | 466 kts | 334° |
| 2026-05-04 18:18 | 49.53101 | 18.35067 | 34000 ft | 465 kts | 334° |
| 2026-05-04 18:18 | 49.58702 | 18.31157 | 33989 ft | 465 kts | 334° |
| 2026-05-04 18:19 | 49.67247 | 18.25121 | 33995 ft | 465 kts | 334° |
| 2026-05-04 18:19 | 49.73125 | 18.20951 | 33993 ft | 464 kts | 334° |
| 2026-05-04 18:20 | 49.78726 | 18.16971 | 33992 ft | 464 kts | 334° |
| 2026-05-04 18:20 | 49.84586 | 18.12796 | 33988 ft | 464 kts | 333° |
| 2026-05-04 18:21 | 49.90452 | 18.08605 | 33980 ft | 464 kts | 333° |
| 2026-05-04 18:21 | 49.96324 | 18.04397 | 33972 ft | 465 kts | 333° |
| 2026-05-04 18:22 | 50.02191 | 18.00188 | 33961 ft | 465 kts | 334° |
| 2026-05-04 18:22 | 50.08186 | 17.96504 | 33958 ft | 465 kts | 338° |
| 2026-05-04 18:23 | 50.14281 | 17.93055 | 33961 ft | 466 kts | 338° |
| 2026-05-04 18:23 | 50.20375 | 17.89565 | 33956 ft | 466 kts | 338° |
| 2026-05-04 18:24 | 50.26458 | 17.86034 | 33953 ft | 465 kts | 337° |
| 2026-05-04 18:24 | 50.29446 | 17.84296 | 33935 ft | 450 kts | 337° |
| 2026-05-04 18:24 | 50.32330 | 17.82616 | 33929 ft | 435 kts | 337° |
| 2026-05-04 18:25 | 50.37026 | 17.79874 | 33944 ft | 428 kts | 337° |
| 2026-05-04 18:25 | 50.42603 | 17.76602 | 33944 ft | 427 kts | 337° |
| 2026-05-04 18:26 | 50.48164 | 17.73332 | 33942 ft | 427 kts | 336° |
| 2026-05-04 18:26 | 50.53729 | 17.70051 | 33940 ft | 427 kts | 336° |
| 2026-05-04 18:27 | 50.59288 | 17.66766 | 33942 ft | 427 kts | 336° |
| 2026-05-04 18:27 | 50.64857 | 17.63465 | 33945 ft | 428 kts | 336° |
| 2026-05-04 18:28 | 50.70242 | 17.59598 | 33928 ft | 423 kts | 323° |
| 2026-05-04 18:28 | 50.74517 | 17.53371 | 33946 ft | 418 kts | 308° |
| 2026-05-04 18:29 | 50.78150 | 17.46271 | 33936 ft | 419 kts | 306° |
| 2026-05-04 18:29 | 50.81739 | 17.39011 | 33933 ft | 419 kts | 306° |
| 2026-05-04 18:30 | 50.87108 | 17.28081 | 33934 ft | 420 kts | 306° |
| 2026-05-04 18:31 | 50.90686 | 17.20781 | 33936 ft | 419 kts | 306° |
| 2026-05-04 18:31 | 50.94258 | 17.13494 | 33934 ft | 418 kts | 306° |
| 2026-05-04 18:32 | 50.97827 | 17.06222 | 33938 ft | 417 kts | 306° |
| 2026-05-04 18:32 | 51.01391 | 16.98976 | 33939 ft | 416 kts | 307° |
| 2026-05-04 18:32 | 51.03409 | 16.95680 | 33938 ft | 419 kts | 318° |
| 2026-05-04 18:33 | 51.05791 | 16.92966 | 33956 ft | 426 kts | 325° |
| 2026-05-04 18:33 | 51.08437 | 16.90709 | 33954 ft | 437 kts | 334° |
| 2026-05-04 18:33 | 51.11340 | 16.89072 | 33944 ft | 446 kts | 339° |
| 2026-05-04 18:34 | 51.17318 | 16.86318 | 33938 ft | 447 kts | 341° |
| 2026-05-04 18:34 | 51.23300 | 16.83638 | 33936 ft | 446 kts | 340° |
| 2026-05-04 18:35 | 51.29248 | 16.80872 | 33933 ft | 444 kts | 340° |
| 2026-05-04 18:35 | 51.35157 | 16.78058 | 33934 ft | 442 kts | 339° |
| 2026-05-04 18:36 | 51.41038 | 16.75234 | 33932 ft | 441 kts | 339° |
| 2026-05-04 18:36 | 51.46906 | 16.72411 | 33931 ft | 440 kts | 339° |
| 2026-05-04 18:37 | 51.52757 | 16.69589 | 33928 ft | 439 kts | 339° |
| 2026-05-04 18:37 | 51.58599 | 16.66765 | 33932 ft | 438 kts | 339° |
| 2026-05-04 18:38 | 51.64419 | 16.63945 | 33931 ft | 436 kts | 339° |
| 2026-05-04 18:38 | 51.70181 | 16.61147 | 33934 ft | 435 kts | 339° |
| 2026-05-04 18:39 | 51.76000 | 16.58311 | 33931 ft | 434 kts | 339° |
| 2026-05-04 18:39 | 51.81732 | 16.55510 | 33927 ft | 433 kts | 338° |
| 2026-05-04 18:40 | 51.87495 | 16.52688 | 33934 ft | 433 kts | 338° |
| 2026-05-04 18:40 | 51.93260 | 16.49855 | 33941 ft | 433 kts | 338° |
| 2026-05-04 18:41 | 51.99032 | 16.47013 | 33941 ft | 434 kts | 338° |
| 2026-05-04 18:41 | 52.04817 | 16.44156 | 33947 ft | 435 kts | 338° |
| 2026-05-04 18:42 | 52.10611 | 16.41287 | 33933 ft | 435 kts | 338° |
| 2026-05-04 18:42 | 52.16406 | 16.38411 | 33932 ft | 436 kts | 338° |
| 2026-05-04 18:43 | 52.22213 | 16.35520 | 33940 ft | 436 kts | 338° |
| 2026-05-04 18:43 | 52.28030 | 16.32616 | 33939 ft | 437 kts | 338° |
| 2026-05-04 18:44 | 52.33848 | 16.29704 | 33943 ft | 438 kts | 338° |
| 2026-05-04 18:44 | 52.39680 | 16.26776 | 33944 ft | 439 kts | 338° |
| 2026-05-04 18:45 | 52.45521 | 16.23836 | 33943 ft | 440 kts | 338° |
| 2026-05-04 18:45 | 52.51350 | 16.20792 | 33946 ft | 438 kts | 333° |
| 2026-05-04 18:46 | 52.56684 | 16.16223 | 33953 ft | 430 kts | 321° |
| 2026-05-04 18:46 | 52.61392 | 16.10272 | 33951 ft | 426 kts | 316° |
| 2026-05-04 18:47 | 52.65994 | 16.04107 | 33950 ft | 427 kts | 316° |
| 2026-05-04 18:47 | 52.70622 | 15.97966 | 33949 ft | 427 kts | 316° |
| 2026-05-04 18:48 | 52.75266 | 15.91832 | 33954 ft | 427 kts | 316° |
| 2026-05-04 18:48 | 52.79919 | 15.85723 | 33951 ft | 428 kts | 319° |
| 2026-05-04 18:49 | 52.85061 | 15.80645 | 33948 ft | 435 kts | 329° |
| 2026-05-04 18:49 | 52.90582 | 15.76553 | 33957 ft | 435 kts | 330° |
| 2026-05-04 18:50 | 52.96099 | 15.72469 | 33954 ft | 434 kts | 330° |
| 2026-05-04 18:50 | 53.01585 | 15.68329 | 33953 ft | 433 kts | 330° |
| 2026-05-04 18:51 | 53.07060 | 15.64186 | 33950 ft | 432 kts | 330° |
| 2026-05-04 18:51 | 53.12531 | 15.60052 | 33951 ft | 431 kts | 330° |
| 2026-05-04 18:52 | 53.17945 | 15.55948 | 33963 ft | 430 kts | 329° |
| 2026-05-04 18:52 | 53.23388 | 15.51808 | 33961 ft | 429 kts | 329° |
| 2026-05-04 18:53 | 53.28811 | 15.47672 | 33970 ft | 428 kts | 329° |
| 2026-05-04 18:53 | 53.34222 | 15.43544 | 33955 ft | 427 kts | 329° |
| 2026-05-04 18:54 | 53.39621 | 15.39418 | 33961 ft | 426 kts | 329° |
| 2026-05-04 18:54 | 53.44993 | 15.35266 | 33969 ft | 425 kts | 330° |
| 2026-05-04 18:55 | 53.50658 | 15.32086 | 33969 ft | 435 kts | 341° |
| 2026-05-04 18:55 | 53.59569 | 15.29132 | 33975 ft | 435 kts | 342° |
| 2026-05-04 18:56 | 53.65501 | 15.27080 | 33980 ft | 435 kts | 341° |
| 2026-05-04 18:56 | 53.71424 | 15.24996 | 33980 ft | 435 kts | 341° |
| 2026-05-04 18:57 | 53.77355 | 15.22916 | 33982 ft | 435 kts | 341° |
| 2026-05-04 18:57 | 53.83255 | 15.20853 | 33983 ft | 436 kts | 341° |
| 2026-05-04 18:58 | 53.89115 | 15.18798 | 33984 ft | 436 kts | 341° |
| 2026-05-04 18:58 | 53.94875 | 15.16771 | 33978 ft | 435 kts | 341° |
| 2026-05-04 18:59 | 54.00806 | 15.14676 | 33981 ft | 435 kts | 341° |
| 2026-05-04 18:59 | 54.06726 | 15.12579 | 33984 ft | 435 kts | 341° |
| 2026-05-04 19:00 | 54.12648 | 15.10475 | 33977 ft | 435 kts | 341° |
| 2026-05-04 19:00 | 54.18573 | 15.08363 | 33976 ft | 435 kts | 341° |
| 2026-05-04 19:01 | 54.24512 | 15.06242 | 33979 ft | 436 kts | 341° |
| 2026-05-04 19:01 | 54.30455 | 15.04093 | 33980 ft | 437 kts | 340° |
| 2026-05-04 19:02 | 54.36383 | 15.01918 | 33549 ft | 436 kts | 340° |
| 2026-05-04 19:02 | 54.39322 | 15.00836 | 33097 ft | 438 kts | 340° |
| 2026-05-04 19:02 | 54.42305 | 14.99742 | 32822 ft | 437 kts | 340° |
| 2026-05-04 19:03 | 54.45267 | 14.98671 | 32706 ft | 432 kts | 340° |
| 2026-05-04 19:03 | 54.48189 | 14.97622 | 32492 ft | 427 kts | 340° |
| 2026-05-04 19:03 | 54.51085 | 14.96580 | 32168 ft | 424 kts | 340° |
| 2026-05-04 19:03 | 54.53969 | 14.95537 | 31796 ft | 423 kts | 340° |
| 2026-05-04 19:04 | 54.56840 | 14.94494 | 31470 ft | 421 kts | 339° |
| 2026-05-04 19:04 | 54.59693 | 14.93457 | 31165 ft | 418 kts | 339° |
| 2026-05-04 19:04 | 54.62524 | 14.92427 | 30892 ft | 414 kts | 339° |
| 2026-05-04 19:04 | 54.65336 | 14.91402 | 30577 ft | 410 kts | 339° |
| 2026-05-04 19:05 | 54.68115 | 14.90388 | 30166 ft | 407 kts | 338° |
| 2026-05-04 19:05 | 54.70870 | 14.89379 | 29702 ft | 403 kts | 338° |
| 2026-05-04 19:05 | 54.73599 | 14.88378 | 29230 ft | 399 kts | 338° |
| 2026-05-04 19:05 | 54.76303 | 14.87386 | 28808 ft | 394 kts | 338° |
| 2026-05-04 19:06 | 54.78972 | 14.86406 | 28375 ft | 390 kts | 338° |
| 2026-05-04 19:06 | 54.81619 | 14.85431 | 27958 ft | 386 kts | 338° |
| 2026-05-04 19:06 | 54.84231 | 14.84447 | 27529 ft | 382 kts | 338° |
| 2026-05-04 19:06 | 54.86818 | 14.83464 | 27116 ft | 379 kts | 338° |
| 2026-05-04 19:07 | 54.89383 | 14.82485 | 26699 ft | 376 kts | 338° |
| 2026-05-04 19:07 | 54.91932 | 14.81512 | 26309 ft | 373 kts | 338° |
| 2026-05-04 19:07 | 54.94457 | 14.80547 | 25910 ft | 370 kts | 338° |
| 2026-05-04 19:07 | 54.96964 | 14.79590 | 25522 ft | 368 kts | 339° |
| 2026-05-04 19:08 | 54.99455 | 14.78638 | 25135 ft | 365 kts | 339° |
| 2026-05-04 19:08 | 55.01932 | 14.77692 | 24749 ft | 363 kts | 339° |
| 2026-05-04 19:08 | 55.04328 | 14.76656 | 24358 ft | 351 kts | 330° |
| 2026-05-04 19:08 | 55.06346 | 14.74552 | 24001 ft | 331 kts | 311° |
| 2026-05-04 19:09 | 55.07864 | 14.71644 | 23621 ft | 320 kts | 297° |
| 2026-05-04 19:09 | 55.08959 | 14.68275 | 23229 ft | 320 kts | 292° |
| 2026-05-04 19:09 | 55.09977 | 14.64760 | 22813 ft | 330 kts | 292° |
| 2026-05-04 19:09 | 55.11009 | 14.61116 | 22408 ft | 338 kts | 292° |
| 2026-05-04 19:10 | 55.12057 | 14.57432 | 21984 ft | 338 kts | 292° |
| 2026-05-04 19:10 | 55.13108 | 14.53768 | 21581 ft | 336 kts | 293° |
| 2026-05-04 19:10 | 55.13817 | 14.51306 | 21304 ft | 334 kts | 293° |
| 2026-05-04 19:10 | 55.14862 | 14.47694 | 20896 ft | 332 kts | 293° |
| 2026-05-04 19:11 | 55.15901 | 14.44104 | 20510 ft | 329 kts | 293° |
| 2026-05-04 19:11 | 55.16932 | 14.40546 | 20114 ft | 327 kts | 293° |
| 2026-05-04 19:11 | 55.17955 | 14.37012 | 19726 ft | 325 kts | 293° |
| 2026-05-04 19:11 | 55.18971 | 14.33500 | 19325 ft | 323 kts | 294° |
| 2026-05-04 19:12 | 55.19981 | 14.30000 | 18948 ft | 321 kts | 294° |
| 2026-05-04 19:12 | 55.21968 | 14.23106 | 18167 ft | 318 kts | 294° |
| 2026-05-04 19:12 | 55.22959 | 14.19660 | 17731 ft | 316 kts | 294° |
| 2026-05-04 19:13 | 55.23944 | 14.16235 | 17313 ft | 314 kts | 294° |
| 2026-05-04 19:13 | 55.24919 | 14.12836 | 16920 ft | 311 kts | 294° |
| 2026-05-04 19:13 | 55.25884 | 14.09466 | 16527 ft | 308 kts | 294° |
| 2026-05-04 19:13 | 55.26841 | 14.06119 | 16128 ft | 305 kts | 294° |
| 2026-05-04 19:14 | 55.27789 | 14.02809 | 15762 ft | 302 kts | 294° |
| 2026-05-04 19:14 | 55.28727 | 13.99527 | 15394 ft | 300 kts | 294° |
| 2026-05-04 19:14 | 55.29656 | 13.96274 | 15032 ft | 297 kts | 294° |
| 2026-05-04 19:14 | 55.30578 | 13.93040 | 14672 ft | 295 kts | 293° |
| 2026-05-04 19:15 | 55.31489 | 13.89842 | 14301 ft | 292 kts | 293° |
| 2026-05-04 19:15 | 55.32365 | 13.86634 | 13944 ft | 289 kts | 291° |
| 2026-05-04 19:15 | 55.33140 | 13.83384 | 13569 ft | 287 kts | 289° |
| 2026-05-04 19:15 | 55.33882 | 13.80149 | 13184 ft | 284 kts | 289° |
| 2026-05-04 19:16 | 55.34614 | 13.76946 | 12805 ft | 281 kts | 289° |
| 2026-05-04 19:16 | 55.35346 | 13.73762 | 12474 ft | 280 kts | 289° |
| 2026-05-04 19:16 | 55.36078 | 13.70586 | 12155 ft | 282 kts | 290° |
| 2026-05-04 19:16 | 55.36830 | 13.67328 | 11818 ft | 292 kts | 290° |
| 2026-05-04 19:17 | 55.37604 | 13.63984 | 11453 ft | 297 kts | 290° |
| 2026-05-04 19:17 | 55.38384 | 13.60617 | 11080 ft | 297 kts | 290° |
| 2026-05-04 19:17 | 55.39160 | 13.57270 | 10716 ft | 294 kts | 290° |
| 2026-05-04 19:17 | 55.39931 | 13.53943 | 10362 ft | 292 kts | 290° |
| 2026-05-04 19:18 | 55.40686 | 13.50686 | 10177 ft | 283 kts | 290° |
| 2026-05-04 19:18 | 55.41414 | 13.47532 | 9985 ft | 274 kts | 290° |
| 2026-05-04 19:18 | 55.42116 | 13.44494 | 9886 ft | 262 kts | 290° |
| 2026-05-04 19:18 | 55.42785 | 13.41586 | 9744 ft | 251 kts | 290° |
| 2026-05-04 19:19 | 55.43433 | 13.38782 | 9529 ft | 244 kts | 290° |
| 2026-05-04 19:19 | 55.44063 | 13.36039 | 9215 ft | 240 kts | 290° |
| 2026-05-04 19:19 | 55.44686 | 13.33316 | 8810 ft | 239 kts | 290° |
| 2026-05-04 19:19 | 55.45309 | 13.30595 | 8427 ft | 239 kts | 290° |
| 2026-05-04 19:20 | 55.45877 | 13.27875 | 8010 ft | 234 kts | 280° |
| 2026-05-04 19:20 | 55.45879 | 13.25020 | 7484 ft | 234 kts | 263° |
| 2026-05-04 19:20 | 55.45694 | 13.22197 | 7085 ft | 235 kts | 264° |
| 2026-05-04 19:20 | 55.45518 | 13.19350 | 6761 ft | 233 kts | 264° |
| 2026-05-04 19:21 | 55.45630 | 13.16554 | 6306 ft | 232 kts | 289° |
| 2026-05-04 19:21 | 55.46521 | 13.14187 | 5896 ft | 236 kts | 314° |
| 2026-05-04 19:21 | 55.47885 | 13.12591 | 5494 ft | 238 kts | 336° |
| 2026-05-04 19:21 | 55.49494 | 13.11798 | 5092 ft | 241 kts | 343° |
| 2026-05-04 19:22 | 55.51122 | 13.11206 | 4845 ft | 238 kts | 345° |
| 2026-05-04 19:22 | 55.52746 | 13.10633 | 4607 ft | 237 kts | 345° |
| 2026-05-04 19:22 | 55.54355 | 13.10049 | 4430 ft | 235 kts | 344° |
| 2026-05-04 19:22 | 55.55959 | 13.09453 | 4249 ft | 235 kts | 344° |
| 2026-05-04 19:23 | 55.57553 | 13.08855 | 4078 ft | 233 kts | 344° |
| 2026-05-04 19:23 | 55.59124 | 13.08261 | 4037 ft | 230 kts | 344° |
| 2026-05-04 19:23 | 55.60687 | 13.07661 | 3987 ft | 228 kts | 344° |
| 2026-05-04 19:23 | 55.62229 | 13.07068 | 3979 ft | 227 kts | 344° |
| 2026-05-04 19:24 | 55.63776 | 13.06467 | 3986 ft | 227 kts | 344° |
| 2026-05-04 19:24 | 55.65310 | 13.05869 | 3977 ft | 225 kts | 344° |
| 2026-05-04 19:24 | 55.66854 | 13.05530 | 3946 ft | 226 kts | 1° |
| 2026-05-04 19:24 | 55.68416 | 13.05916 | 4006 ft | 230 kts | 5° |
| 2026-05-04 19:25 | 55.70022 | 13.06360 | 3981 ft | 235 kts | 5° |
| 2026-05-04 19:25 | 55.71627 | 13.06806 | 3974 ft | 231 kts | 5° |
| 2026-05-04 19:25 | 55.73181 | 13.07242 | 3979 ft | 221 kts | 5° |
| 2026-05-04 19:25 | 55.74674 | 13.07581 | 3930 ft | 214 kts | 352° |
| 2026-05-04 19:26 | 55.76035 | 13.06776 | 3911 ft | 204 kts | 320° |
| 2026-05-04 19:26 | 55.77023 | 13.05056 | 3884 ft | 197 kts | 301° |
| 2026-05-04 19:26 | 55.77397 | 13.02759 | 3752 ft | 196 kts | 266° |
| 2026-05-04 19:26 | 55.77129 | 13.00389 | 3673 ft | 197 kts | 256° |
| 2026-05-04 19:27 | 55.76747 | 12.98037 | 3625 ft | 198 kts | 255° |
| 2026-05-04 19:27 | 55.76360 | 12.95708 | 3526 ft | 193 kts | 255° |
| 2026-05-04 19:27 | 55.75993 | 12.93547 | 3455 ft | 177 kts | 255° |
| 2026-05-04 19:27 | 55.75645 | 12.91541 | 3349 ft | 164 kts | 255° |
| 2026-05-04 19:28 | 55.75309 | 12.89619 | 3348 ft | 164 kts | 255° |
| 2026-05-04 19:28 | 55.74971 | 12.87693 | 3194 ft | 161 kts | 255° |
| 2026-05-04 19:28 | 55.74465 | 12.85957 | 3034 ft | 161 kts | 229° |
| 2026-05-04 19:28 | 55.73691 | 12.84520 | 3038 ft | 161 kts | 232° |
| 2026-05-04 19:29 | 55.72948 | 12.83095 | 2826 ft | 153 kts | 230° |
| 2026-05-04 19:29 | 55.72188 | 12.81803 | 2613 ft | 151 kts | 227° |
| 2026-05-04 19:29 | 55.71409 | 12.80554 | 2423 ft | 151 kts | 226° |
| 2026-05-04 19:29 | 55.70623 | 12.79319 | 2207 ft | 151 kts | 226° |
| 2026-05-04 19:30 | 55.69834 | 12.78088 | 1996 ft | 151 kts | 226° |
| 2026-05-04 19:30 | 55.69048 | 12.76864 | 1793 ft | 150 kts | 226° |
| 2026-05-04 19:30 | 55.68266 | 12.75648 | 1575 ft | 149 kts | 226° |
| 2026-05-04 19:30 | 55.67484 | 12.74439 | 1362 ft | 148 kts | 225° |
| 2026-05-04 19:31 | 55.66713 | 12.73242 | 1167 ft | 147 kts | 225° |
| 2026-05-04 19:31 | 55.65942 | 12.72041 | 981 ft | 148 kts | 225° |
| 2026-05-04 19:31 | 55.65169 | 12.70843 | 761 ft | 146 kts | 224° |
| 2026-05-04 19:31 | 55.64402 | 12.69647 | 558 ft | 148 kts | 224° |
| 2026-05-04 19:32 | 55.63627 | 12.68447 | 361 ft | 149 kts | 224° |
| 2026-05-04 19:32 | 55.62846 | 12.67229 | 147 ft | 149 kts | 224° |
| 2026-05-04 19:32 | 55.62069 | 12.66031 | 25 ft | 142 kts | 224° |
| 2026-05-04 19:32 | 55.61465 | 12.65093 | 23 ft | 85 kts | 221° |
| 2026-05-04 19:33 | 55.61143 | 12.64596 | 21 ft | 53 kts | 221° |
| 2026-05-04 19:33 | 55.60878 | 12.64184 | 23 ft | 48 kts | 221° |
| 2026-05-04 19:33 | 55.60707 | 12.63916 | 27 ft | 13 kts | 227° |
| 2026-05-04 19:33 | 55.60700 | 12.63771 | 23 ft | 13 kts | 296° |
| 2026-05-04 19:34 | 55.60755 | 12.63651 | 26 ft | 13 kts | 311° |
| 2026-05-04 19:34 | 55.60827 | 12.63601 | 25 ft | 12 kts | 19° |
| 2026-05-04 19:34 | 55.60900 | 12.63676 | 25 ft | 12 kts | 32° |
| 2026-05-04 19:34 | 55.60971 | 12.63758 | 24 ft | 12 kts | 33° |
| 2026-05-04 19:35 | 55.61042 | 12.63840 | 24 ft | 12 kts | 33° |
| 2026-05-04 19:35 | 55.61117 | 12.63926 | 25 ft | 15 kts | 33° |
| 2026-05-04 19:35 | 55.61229 | 12.64054 | 25 ft | 23 kts | 33° |
| 2026-05-04 19:35 | 55.61367 | 12.64213 | 25 ft | 24 kts | 33° |
| 2026-05-04 19:36 | 55.61505 | 12.64372 | 24 ft | 24 kts | 32° |
| 2026-05-04 19:36 | 55.61643 | 12.64530 | 23 ft | 24 kts | 33° |
| 2026-05-04 19:36 | 55.61779 | 12.64688 | 25 ft | 22 kts | 33° |
| 2026-05-04 19:36 | 55.61884 | 12.64807 | 23 ft | 13 kts | 33° |
| 2026-05-04 19:37 | 55.61928 | 12.64859 | 24 ft | 6 kts | 33° |
| 2026-05-04 19:37 | 55.61931 | 12.64863 | 23 ft | 0 kts | 33° |
| 2026-05-04 19:37 | 55.61937 | 12.64869 | 21 ft | 4 kts | 33° |
| 2026-05-04 19:38 | 55.61983 | 12.64922 | 26 ft | 10 kts | 33° |
| 2026-05-04 19:38 | 55.62003 | 12.65018 | 23 ft | 10 kts | 110° |
| 2026-05-04 19:38 | 55.61951 | 12.65165 | 25 ft | 15 kts | 123° |
| 2026-05-04 19:38 | 55.61893 | 12.65324 | 22 ft | 15 kts | 123° |
| 2026-05-04 19:39 | 55.61871 | 12.65383 | 20 ft | 0 kts | 123° |
| 2026-05-04 19:40 | 55.61855 | 12.65425 | 21 ft | 13 kts | 123° |
| 2026-05-04 19:40 | 55.61770 | 12.65656 | 27 ft | 26 kts | 123° |
| 2026-05-04 19:40 | 55.61681 | 12.65897 | 27 ft | 18 kts | 123° |
| 2026-05-04 19:40 | 55.61655 | 12.65967 | 28 ft | 2 kts | 123° |
| 2026-05-04 19:41 | 55.61648 | 12.65984 | 25 ft | 2 kts | 123° |
| 2026-05-04 19:41 | 55.61637 | 12.66016 | 28 ft | 8 kts | 123° |
| 2026-05-04 19:41 | 55.61590 | 12.66146 | 27 ft | 14 kts | 123° |
| 2026-05-04 19:41 | 55.61533 | 12.66297 | 22 ft | 15 kts | 124° |
| 2026-05-04 19:42 | 55.61472 | 12.66462 | 26 ft | 18 kts | 123° |
| 2026-05-04 19:42 | 55.61398 | 12.66660 | 25 ft | 20 kts | 123° |
| 2026-05-04 19:42 | 55.61320 | 12.66872 | 25 ft | 21 kts | 123° |
| 2026-05-04 19:42 | 55.61277 | 12.66997 | 25 ft | 8 kts | 106° |
| 2026-05-04 19:43 | 55.61311 | 12.67093 | 26 ft | 14 kts | 33° |
| 2026-05-04 19:43 | 55.61412 | 12.67128 | 21 ft | 14 kts | 355° |
| 2026-05-04 19:43 | 55.61500 | 12.67101 | 23 ft | 11 kts | 349° |
| 2026-05-04 19:43 | 55.61566 | 12.67077 | 22 ft | 9 kts | 349° |
| 2026-05-04 19:44 | 55.61585 | 12.67071 | 23 ft | 0 kts | 349° |
| 2026-05-04 19:45 | 55.61586 | 12.67071 | 23 ft | 0 kts | 349° |
| 2026-05-04 19:45 | 55.61608 | 12.67063 | 21 ft | 7 kts | 349° |
| 2026-05-04 19:45 | 55.61662 | 12.67045 | 22 ft | 8 kts | 349° |
| 2026-05-04 19:46 | 55.61699 | 12.67073 | 25 ft | 6 kts | 59° |
| 2026-05-04 19:46 | 55.61710 | 12.67141 | 25 ft | 5 kts | 78° |
| 2026-05-04 19:46 | 55.61714 | 12.67181 | 24 ft | 2 kts | 78° |
| 2026-05-04 19:46 | 55.61716 | 12.67190 | 24 ft | 0 kts | 79° |